createdAt,value
2019-03-13T00:00:26.505Z,98679.11
2019-03-13T00:02:56.575Z,98673.52
2019-03-13T00:05:26.934Z,98675.17
2019-03-13T00:07:56.824Z,98680.73
2019-03-13T00:10:26.728Z,98677.80
2019-03-13T00:12:56.654Z,98673.54
2019-03-13T00:15:26.418Z,98675.37
2019-03-13T00:17:56.245Z,98678.80
2019-03-13T00:20:26.412Z,98676.17
2019-03-13T00:22:56.655Z,98680.88
2019-03-13T00:25:26.684Z,98676.54
2019-03-13T00:27:56.620Z,98682.52
2019-03-13T00:30:26.633Z,98677.80
2019-03-13T00:32:56.476Z,98674.40
2019-03-13T00:35:26.686Z,98676.97
2019-03-13T00:37:56.263Z,98676.11
2019-03-13T00:40:26.453Z,98679.97
2019-03-13T00:42:56.309Z,98686.57
2019-03-13T00:48:05.488Z,98689.05
2019-03-13T00:50:35.282Z,98690.02
2019-03-13T00:53:05.079Z,98690.60
2019-03-13T00:55:35.051Z,98686.05
2019-03-13T00:58:05.175Z,98696.42
2019-03-13T01:00:54.735Z,98696.56
2019-03-13T01:03:42.688Z,98689.94
2019-03-13T01:06:19.955Z,98688.66
2019-03-13T01:08:50.349Z,98686.94
2019-03-13T01:11:20.413Z,98695.50
2019-03-13T01:13:52.798Z,98694.64
2019-03-13T01:16:23.064Z,98694.24
2019-03-13T01:18:53.223Z,98700.62
2019-03-13T01:21:23.044Z,98704.52
2019-03-13T01:23:53.477Z,98700.66
2019-03-13T01:26:23.120Z,98707.03
2019-03-13T01:28:53.192Z,98704.77
2019-03-13T01:31:45.372Z,98717.03
2019-03-13T01:34:46.552Z,98712.17
2019-03-13T01:37:16.391Z,98716.86
2019-03-13T01:39:46.529Z,98717.79
2019-03-13T01:42:16.628Z,98719.08
2019-03-13T01:44:46.413Z,98720.41
2019-03-13T01:47:16.648Z,98729.80
2019-03-13T01:49:46.998Z,98738.37
2019-03-13T01:52:16.748Z,98733.23
2019-03-13T01:54:46.581Z,98740.91
2019-03-13T01:57:16.413Z,98743.91
2019-03-13T01:59:46.304Z,98742.59
2019-03-13T02:02:16.321Z,98741.34
2019-03-13T02:04:46.212Z,98743.45
2019-03-13T02:07:16.475Z,98743.43
2019-03-13T02:09:46.451Z,98749.86
2019-03-13T02:12:16.488Z,98752.83
2019-03-13T02:14:46.451Z,98751.14
2019-03-13T02:17:16.583Z,98748.11
2019-03-13T02:19:49.510Z,98751.14
2019-03-13T02:22:18.586Z,98752.52
2019-03-13T02:24:48.562Z,98750.83
2019-03-13T02:27:18.471Z,98754.69
2019-03-13T02:29:48.387Z,98751.77
2019-03-13T02:32:18.444Z,98753.95
2019-03-13T02:34:48.418Z,98753.50
2019-03-13T02:37:18.160Z,98762.12
2019-03-13T02:39:48.185Z,98761.75
2019-03-13T02:42:18.027Z,98765.63
2019-03-13T02:44:48.089Z,98770.86
2019-03-13T02:47:19.721Z,98772.57
2019-03-13T02:49:49.903Z,98779.91
2019-03-13T02:52:19.664Z,98778.25
2019-03-13T02:54:49.685Z,98778.75
2019-03-13T02:57:19.788Z,98782.22
2019-03-13T02:59:52.387Z,98785.69
2019-03-13T03:02:41.987Z,98791.75
2019-03-13T03:05:12.099Z,98787.84
2019-03-13T03:07:42.106Z,98786.61
2019-03-13T03:10:12.398Z,98799.03
2019-03-13T03:12:42.475Z,98806.83
2019-03-13T03:15:14.724Z,98799.13
2019-03-13T03:17:44.706Z,98812.47
2019-03-13T03:20:16.794Z,98809.98
2019-03-13T03:22:46.990Z,98808.19
2019-03-13T03:25:17.241Z,98813.28
2019-03-13T03:27:48.789Z,98812.94
2019-03-13T03:30:20.643Z,98819.37
2019-03-13T03:32:50.655Z,98812.59
2019-03-13T03:35:20.695Z,98820.29
2019-03-13T03:37:50.848Z,98819.84
2019-03-13T03:40:23.112Z,98824.94
2019-03-13T03:42:53.304Z,98832.12
2019-03-13T03:45:23.324Z,98826.13
2019-03-13T03:47:53.606Z,98827.40
2019-03-13T03:50:23.320Z,98826.47
2019-03-13T03:52:53.348Z,98831.72
2019-03-13T03:55:23.374Z,98835.55
2019-03-13T03:57:54.210Z,98841.11
2019-03-13T04:00:24.277Z,98845.41
2019-03-13T04:02:54.547Z,98852.65
2019-03-13T04:05:24.846Z,98844.56
2019-03-13T04:07:54.845Z,98847.05
2019-03-13T04:10:24.857Z,98847.90
2019-03-13T04:12:54.895Z,98846.63
2019-03-13T04:15:25.222Z,98851.27
2019-03-13T04:17:55.362Z,98857.23
2019-03-13T04:20:25.657Z,98863.58
2019-03-13T04:22:55.832Z,98862.28
2019-03-13T04:25:33.857Z,98853.27
2019-03-13T04:28:04.624Z,98862.23
2019-03-13T04:30:35.545Z,98864.42
2019-03-13T04:33:05.535Z,98868.23
2019-03-13T04:35:35.509Z,98871.19
2019-03-13T04:38:05.555Z,98874.94
2019-03-13T04:40:35.517Z,98874.91
2019-03-13T04:43:05.540Z,98884.27
2019-03-13T04:45:36.632Z,98883.00
2019-03-13T04:48:06.540Z,98882.56
2019-03-13T04:50:36.780Z,98881.70
2019-03-13T04:53:06.776Z,98881.28
2019-03-13T04:55:37.262Z,98879.50
2019-03-13T04:58:07.499Z,98883.77
2019-03-13T05:00:37.519Z,98883.22
2019-03-13T05:03:08.691Z,98884.86
2019-03-13T05:05:42.927Z,98888.83
2019-03-13T05:08:18.739Z,98885.53
2019-03-13T05:10:48.645Z,98886.41
2019-03-13T05:13:19.261Z,98886.86
2019-03-13T05:15:49.425Z,98884.63
2019-03-13T05:18:19.659Z,98886.84
2019-03-13T05:20:50.498Z,98891.18
2019-03-13T05:23:20.989Z,98893.23
2019-03-13T05:25:51.240Z,98894.33
2019-03-13T05:28:21.628Z,98903.65
2019-03-13T05:30:53.066Z,98906.53
2019-03-13T05:33:23.564Z,98918.09
2019-03-13T05:35:54.257Z,98914.17
2019-03-13T05:38:24.460Z,98901.69
2019-03-13T05:40:54.682Z,98909.80
2019-03-13T05:43:25.352Z,98913.95
2019-03-13T05:45:56.733Z,98913.38
2019-03-13T05:48:27.152Z,98912.34
2019-03-13T05:50:57.273Z,98915.02
2019-03-13T05:53:27.697Z,98915.32
2019-03-13T05:55:58.330Z,98917.92
2019-03-13T05:58:29.010Z,98915.20
2019-03-13T06:01:00.681Z,98921.68
2019-03-13T06:03:30.875Z,98926.11
2019-03-13T06:06:01.292Z,98928.23
2019-03-13T06:08:31.626Z,98932.59
2019-03-13T06:11:02.044Z,98926.31
2019-03-13T06:13:32.789Z,98940.12
2019-03-13T06:16:03.009Z,98939.60
2019-03-13T06:18:33.296Z,98939.58
2019-03-13T06:21:03.494Z,98942.30
2019-03-13T06:23:34.818Z,98949.99
2019-03-13T06:26:06.185Z,98949.39
2019-03-13T06:28:36.518Z,98945.48
2019-03-13T06:31:07.996Z,98953.55
2019-03-13T06:33:38.830Z,98952.05
2019-03-13T06:36:08.897Z,98952.72
2019-03-13T06:38:39.037Z,98951.84
2019-03-13T06:41:08.964Z,98958.27
2019-03-13T06:43:38.874Z,98955.23
2019-03-13T06:46:09.304Z,98963.05
2019-03-13T06:48:39.416Z,98963.42
2019-03-13T06:51:09.991Z,98973.45
2019-03-13T06:53:40.387Z,98968.14
2019-03-13T06:56:10.881Z,98969.51
2019-03-13T06:59:04.182Z,98968.70
2019-03-13T07:01:52.723Z,98972.59
2019-03-13T07:04:40.403Z,98976.23
2019-03-13T07:07:20.917Z,98973.73
2019-03-13T07:09:56.879Z,98981.74
2019-03-13T07:12:38.296Z,98974.42
2019-03-13T07:15:30.415Z,98978.27
2019-03-13T07:18:26.586Z,98982.63
2019-03-13T07:21:28.933Z,98981.45
2019-03-13T07:24:14.744Z,98988.42
2019-03-13T07:26:54.693Z,98987.88
2019-03-13T07:29:49.065Z,98999.28
2019-03-13T07:32:41.879Z,98996.16
2019-03-13T07:35:46.498Z,99003.12
2019-03-13T07:38:41.658Z,99001.98
2019-03-13T07:41:30.368Z,99004.92
2019-03-13T07:44:30.839Z,99009.22
2019-03-13T07:47:19.174Z,99012.84
2019-03-13T07:49:56.902Z,99012.99
2019-03-13T07:52:46.660Z,99012.14
2019-03-13T07:55:34.355Z,99015.42
2019-03-13T07:58:20.953Z,99012.80
2019-03-13T08:01:13.418Z,99020.37
2019-03-13T08:04:04.955Z,99023.25
2019-03-13T08:06:51.477Z,99024.05
2019-03-13T08:09:49.539Z,99018.25
2019-03-13T08:12:37.592Z,99016.53
2019-03-13T08:15:28.640Z,99025.53
2019-03-13T08:18:24.700Z,99026.75
2019-03-13T08:21:22.331Z,99031.97
2019-03-13T08:24:18.928Z,99033.05
2019-03-13T08:27:08.964Z,99038.39
2019-03-13T08:29:56.441Z,99042.13
2019-03-13T08:32:46.685Z,99047.94
2019-03-13T08:35:35.113Z,99039.60
2019-03-13T08:38:25.434Z,99046.56
2019-03-13T08:41:14.920Z,99039.19
2019-03-13T08:44:04.795Z,99043.84
2019-03-13T08:46:57.544Z,99046.48
2019-03-13T08:49:38.818Z,99044.88
2019-03-13T08:52:34.111Z,99046.43
2019-03-13T08:55:22.594Z,99044.25
2019-03-13T08:58:26.728Z,99042.23
2019-03-13T09:01:16.020Z,99043.47
2019-03-13T09:04:19.053Z,99041.31
2019-03-13T09:07:11.044Z,99051.39
2019-03-13T09:09:59.006Z,99048.61
2019-03-13T09:12:40.854Z,99058.80
2019-03-13T09:15:26.854Z,99064.47
2019-03-13T09:18:19.361Z,99057.23
2019-03-13T09:21:02.321Z,99068.97
2019-03-13T09:23:55.490Z,99066.23
2019-03-13T09:26:35.733Z,99069.89
2019-03-13T09:29:31.685Z,99060.52
2019-03-13T09:32:21.863Z,99063.75
2019-03-13T09:35:17.475Z,99064.77
2019-03-13T09:38:01.150Z,99069.43
2019-03-13T09:40:53.989Z,99072.29
2019-03-13T09:43:49.994Z,99084.23
2019-03-13T09:46:51.737Z,99078.87
2019-03-13T09:49:40.059Z,99075.10
2019-03-13T09:52:19.326Z,99074.29
2019-03-13T09:55:10.284Z,99077.98
2019-03-13T09:58:00.032Z,99086.94
2019-03-13T10:00:48.923Z,99091.17
2019-03-13T10:03:25.727Z,99093.93
2019-03-13T10:06:15.424Z,99097.66
2019-03-13T10:09:03.359Z,99111.41
2019-03-13T10:11:55.783Z,99113.58
2019-03-13T10:14:49.183Z,99104.94
2019-03-13T10:17:31.028Z,99112.90
2019-03-13T10:20:20.828Z,99113.28
2019-03-13T10:23:04.365Z,99108.33
2019-03-13T10:25:52.778Z,99109.25
2019-03-13T10:28:32.935Z,99109.63
2019-03-13T10:31:31.784Z,99109.92
2019-03-13T10:34:27.721Z,99114.83
2019-03-13T10:37:18.480Z,99112.69
2019-03-13T10:40:11.104Z,99119.05
2019-03-13T10:43:01.369Z,99117.06
2019-03-13T10:46:09.464Z,99112.83
2019-03-13T10:49:00.822Z,99112.10
2019-03-13T10:51:48.873Z,99117.86
2019-03-13T10:54:50.621Z,99122.45
2019-03-13T10:57:52.711Z,99120.27
2019-03-13T11:00:31.075Z,99124.23
2019-03-13T11:03:19.174Z,99139.23
2019-03-13T11:06:07.821Z,99136.19
2019-03-13T11:09:01.648Z,99136.30
2019-03-13T11:11:46.726Z,99147.24
2019-03-13T11:14:33.744Z,99143.31
2019-03-13T11:17:26.489Z,99147.39
2019-03-13T11:20:25.050Z,99142.98
2019-03-13T11:23:23.448Z,99152.52
2019-03-13T11:26:06.571Z,99148.03
2019-03-13T11:28:46.737Z,99149.00
2019-03-13T11:31:42.648Z,99149.47
2019-03-13T11:34:21.627Z,99150.47
2019-03-13T11:37:14.906Z,99159.95
2019-03-13T11:40:17.535Z,99152.81
2019-03-13T11:43:10.447Z,99158.23
2019-03-13T11:45:54.336Z,99160.70
2019-03-13T11:48:44.381Z,99153.95
2019-03-13T11:51:51.005Z,99159.98
2019-03-13T11:54:49.618Z,99162.03
2019-03-13T11:57:38.814Z,99160.77
2019-03-13T12:00:41.327Z,99164.88
2019-03-13T12:03:31.529Z,99153.63
2019-03-13T12:06:27.541Z,99165.52
2019-03-13T12:09:15.416Z,99164.50
2019-03-13T12:11:59.691Z,99169.80
2019-03-13T12:14:52.735Z,99172.84
2019-03-13T12:17:30.965Z,99174.62
2019-03-13T12:20:26.184Z,99178.27
2019-03-13T12:23:07.283Z,99184.49
2019-03-13T12:25:57.935Z,99182.56
2019-03-13T12:28:52.622Z,99182.59
2019-03-13T12:31:39.318Z,99182.64
2019-03-13T12:34:14.356Z,99186.75
2019-03-13T12:37:03.887Z,99187.35
2019-03-13T12:39:59.926Z,99193.41
2019-03-13T12:42:42.557Z,99194.81
2019-03-13T12:45:36.852Z,99195.89
2019-03-13T12:48:17.695Z,99192.47
2019-03-13T12:51:06.826Z,99191.70
2019-03-13T12:53:56.513Z,99197.20
2019-03-13T12:56:33.981Z,99204.88
2019-03-13T12:59:13.975Z,99198.38
2019-03-13T13:02:04.241Z,99191.84
2019-03-13T13:04:52.985Z,99201.35
2019-03-13T13:07:45.422Z,99199.43
2019-03-13T13:10:28.408Z,99199.77
2019-03-13T13:13:15.526Z,99203.63
2019-03-13T13:15:58.580Z,99200.06
2019-03-13T13:18:48.291Z,99208.97
2019-03-13T13:21:19.173Z,99208.53
2019-03-13T13:23:49.994Z,99205.38
2019-03-13T13:26:20.279Z,99206.43
2019-03-13T13:28:50.950Z,99203.33
2019-03-13T13:31:21.204Z,99206.00
2019-03-13T13:33:51.150Z,99208.06
2019-03-13T13:36:21.906Z,99203.47
2019-03-13T13:38:52.650Z,99210.35
2019-03-13T13:41:23.196Z,99212.20
2019-03-13T13:43:53.957Z,99211.48
2019-03-13T13:46:29.279Z,99218.99
2019-03-13T13:48:59.619Z,99218.05
2019-03-13T13:51:32.583Z,99209.22
2019-03-13T13:54:02.008Z,99216.86
2019-03-13T13:56:32.263Z,99219.45
2019-03-13T13:59:03.077Z,99212.75
2019-03-13T14:01:33.290Z,99219.76
2019-03-13T14:04:03.559Z,99224.80
2019-03-13T14:06:34.272Z,99224.98
2019-03-13T14:09:05.109Z,99229.83
2019-03-13T14:11:35.881Z,99230.58
2019-03-13T14:14:09.434Z,99229.25
2019-03-13T14:16:39.538Z,99241.75
2019-03-13T14:19:10.433Z,99238.73
2019-03-13T14:21:41.367Z,99248.61
2019-03-13T14:24:12.433Z,99253.13
2019-03-13T14:26:43.406Z,99263.59
2019-03-13T14:29:13.775Z,99265.75
2019-03-13T14:31:45.696Z,99262.25
2019-03-13T14:34:16.386Z,99268.66
2019-03-13T14:36:47.050Z,99264.58
2019-03-13T14:39:17.705Z,99269.00
2019-03-13T14:41:47.993Z,99269.56
2019-03-13T14:44:18.816Z,99266.52
2019-03-13T14:46:49.816Z,99280.62
2019-03-13T14:49:20.746Z,99277.92
2019-03-13T14:51:52.140Z,99282.45
2019-03-13T14:54:22.561Z,99280.55
2019-03-13T14:56:52.990Z,99292.34
2019-03-13T14:59:24.129Z,99294.64
2019-03-13T15:01:54.781Z,99299.15
2019-03-13T15:04:25.113Z,99295.41
2019-03-13T15:06:55.888Z,99301.98
2019-03-13T15:09:26.197Z,99299.53
2019-03-13T15:11:56.698Z,99307.35
2019-03-13T15:14:27.067Z,99306.19
2019-03-13T15:16:57.638Z,99308.73
2019-03-13T15:19:28.159Z,99313.42
2019-03-13T15:21:58.802Z,99307.84
2019-03-13T15:24:29.002Z,99311.33
2019-03-13T15:26:59.193Z,99315.70
2019-03-13T15:29:29.957Z,99318.33
2019-03-13T15:32:00.351Z,99320.88
2019-03-13T15:34:31.100Z,99327.32
2019-03-13T15:37:01.798Z,99329.47
2019-03-13T15:39:32.624Z,99330.34
2019-03-13T15:42:03.281Z,99334.70
2019-03-13T15:44:33.655Z,99332.73
2019-03-13T15:47:03.790Z,99336.70
2019-03-13T15:49:34.077Z,99341.54
2019-03-13T15:52:04.378Z,99347.23
2019-03-13T15:54:34.710Z,99346.05
2019-03-13T15:57:05.023Z,99354.22
2019-03-13T15:59:35.162Z,99357.70
2019-03-13T16:02:05.266Z,99365.46
2019-03-13T16:04:35.302Z,99370.66
2019-03-13T16:07:05.273Z,99368.99
2019-03-13T16:09:35.439Z,99379.38
2019-03-13T16:12:05.821Z,99375.95
2019-03-13T16:14:35.984Z,99384.14
2019-03-13T16:17:05.960Z,99383.73
2019-03-13T16:19:36.391Z,99385.91
2019-03-13T16:22:07.768Z,99388.50
2019-03-13T16:24:37.938Z,99394.95
2019-03-13T16:27:08.969Z,99396.69
2019-03-13T16:29:38.694Z,99397.13
2019-03-13T16:32:13.390Z,99399.30
2019-03-13T16:34:44.663Z,99394.63
2019-03-13T16:37:15.144Z,99392.08
2019-03-13T16:39:46.169Z,99396.38
2019-03-13T16:42:19.556Z,99394.64
2019-03-13T16:44:50.458Z,99394.64
2019-03-13T16:47:21.332Z,99394.71
2019-03-13T16:49:53.639Z,99396.89
2019-03-13T16:52:25.044Z,99399.53
2019-03-13T16:54:58.217Z,99395.23
2019-03-13T16:57:28.875Z,99401.26
2019-03-13T17:00:00.783Z,99406.39
2019-03-13T17:02:31.518Z,99408.55
2019-03-13T17:05:02.512Z,99412.88
2019-03-13T17:07:34.905Z,99415.05
2019-03-13T17:10:06.938Z,99417.97
2019-03-13T17:12:40.548Z,99425.27
2019-03-13T17:15:13.686Z,99419.77
2019-03-13T17:17:44.398Z,99422.77
2019-03-13T17:20:17.505Z,99423.66
2019-03-13T17:22:48.322Z,99430.53
2019-03-13T17:25:19.239Z,99434.86
2019-03-13T17:27:50.938Z,99440.42
2019-03-13T17:30:23.622Z,99441.69
2019-03-13T17:32:54.955Z,99445.48
2019-03-13T17:35:25.168Z,99445.95
2019-03-13T17:37:55.571Z,99447.25
2019-03-13T17:40:26.961Z,99454.14
2019-03-13T17:42:57.814Z,99457.57
2019-03-13T17:45:30.614Z,99461.42
2019-03-13T17:48:00.942Z,99465.69
2019-03-13T17:50:31.394Z,99456.70
2019-03-13T17:53:02.313Z,99462.71
2019-03-13T17:55:32.601Z,99463.59
2019-03-13T17:58:03.155Z,99468.73
2019-03-13T18:00:51.900Z,99475.57
2019-03-13T18:03:25.366Z,99473.86
2019-03-13T18:05:58.226Z,99478.18
2019-03-13T18:08:28.489Z,99481.20
2019-03-13T18:10:59.899Z,99487.16
2019-03-13T18:13:30.940Z,99488.45
2019-03-13T18:16:04.446Z,99482.84
2019-03-13T18:20:44.482Z,99488.80
2019-03-13T18:23:15.390Z,99490.09
2019-03-13T18:25:49.024Z,99489.69
2019-03-13T18:28:22.408Z,99494.41
2019-03-13T18:30:53.365Z,99496.61
2019-03-13T18:33:26.581Z,99500.45
2019-03-13T18:35:58.790Z,99496.61
2019-03-13T18:38:30.842Z,99501.75
2019-03-13T18:41:02.875Z,99497.45
2019-03-13T18:43:33.868Z,99500.92
2019-03-13T18:46:04.577Z,99501.33
2019-03-13T18:48:35.565Z,99503.91
2019-03-13T18:51:07.076Z,99507.76
2019-03-13T18:53:38.036Z,99505.19
2019-03-13T18:56:08.482Z,99507.76
2019-03-13T18:58:39.172Z,99508.21
2019-03-13T19:01:10.942Z,99506.92
2019-03-13T19:03:41.800Z,99507.75
2019-03-13T19:06:14.015Z,99508.17
2019-03-13T19:08:44.094Z,99497.94
2019-03-13T19:11:14.367Z,99500.92
2019-03-13T19:13:45.831Z,99506.09
2019-03-13T19:16:16.113Z,99511.23
2019-03-13T19:18:46.265Z,99507.38
2019-03-13T19:21:19.660Z,99512.09
2019-03-13T19:23:53.865Z,99516.36
2019-03-13T19:26:25.768Z,99512.52
2019-03-13T19:29:01.389Z,99513.37
2019-03-13T19:31:40.160Z,99513.41
2019-03-13T19:34:11.529Z,99511.68
2019-03-13T19:36:43.353Z,99518.96
2019-03-13T19:39:18.898Z,99512.55
2019-03-13T19:41:50.241Z,99507.41
2019-03-13T19:44:21.790Z,99505.71
2019-03-13T19:46:52.629Z,99508.28
2019-03-13T19:49:25.595Z,99511.71
2019-03-13T19:51:56.988Z,99515.11
2019-03-13T19:54:29.503Z,99513.83
2019-03-13T19:57:00.323Z,99512.58
2019-03-13T19:59:31.133Z,99514.72
2019-03-13T20:02:01.924Z,99522.41
2019-03-13T20:04:46.679Z,99518.15
2019-03-13T20:07:07.369Z,99524.14
2019-03-13T20:09:37.622Z,99530.55
2019-03-13T20:12:07.961Z,99529.69
2019-03-13T20:14:39.302Z,99530.14
2019-03-13T20:17:09.809Z,99535.69
2019-03-13T20:19:40.449Z,99540.39
2019-03-13T20:22:11.325Z,99536.55
2019-03-13T20:24:41.515Z,99540.81
2019-03-13T20:27:12.076Z,99536.55
2019-03-13T20:29:44.478Z,99542.09
2019-03-13T20:32:15.353Z,99540.39
2019-03-13T20:34:46.474Z,99539.11
2019-03-13T20:37:16.902Z,99537.41
2019-03-13T20:39:46.969Z,99545.95
2019-03-13T20:42:17.295Z,99547.66
2019-03-13T20:44:47.582Z,99551.50
2019-03-13T20:47:18.668Z,99546.38
2019-03-13T20:49:49.032Z,99550.23
2019-03-13T20:52:18.780Z,99551.52
2019-03-13T20:54:48.714Z,99553.19
2019-03-13T20:57:19.009Z,99556.63
2019-03-13T20:59:48.943Z,99560.05
2019-03-13T21:02:19.406Z,99560.47
2019-03-13T21:04:50.709Z,99561.77
2019-03-13T21:07:21.168Z,99569.88
2019-03-13T21:09:51.233Z,99559.62
2019-03-13T21:12:23.045Z,99567.75
2019-03-13T21:14:53.091Z,99559.63
2019-03-13T21:17:22.996Z,99575.03
2019-03-13T21:19:53.080Z,99575.44
2019-03-13T21:22:22.995Z,99567.77
2019-03-13T21:24:53.339Z,99576.73
2019-03-13T21:27:23.511Z,99572.02
2019-03-13T21:29:53.621Z,99569.45
2019-03-13T21:32:23.799Z,99571.59
2019-03-13T21:34:54.591Z,99575.03
2019-03-13T21:37:24.686Z,99575.02
2019-03-13T21:39:54.784Z,99575.03
2019-03-13T21:42:24.721Z,99576.31
2019-03-13T21:44:54.838Z,99583.99
2019-03-13T21:47:25.128Z,99581.85
2019-03-13T21:49:55.035Z,99584.41
2019-03-13T21:52:25.231Z,99586.14
2019-03-13T21:54:55.215Z,99583.13
2019-03-13T21:57:24.964Z,99588.70
2019-03-13T21:59:55.692Z,99595.11
2019-03-13T22:02:32.562Z,99594.69
2019-03-13T22:04:57.590Z,99592.54
2019-03-13T22:07:27.498Z,99592.97
2019-03-13T22:09:58.661Z,99596.37
2019-03-13T22:12:28.601Z,99611.33
2019-03-13T22:14:58.526Z,99604.91
2019-03-13T22:17:28.699Z,99611.32
2019-03-13T22:20:01.238Z,99616.03
2019-03-13T22:22:31.210Z,99619.02
2019-03-13T22:25:01.179Z,99619.46
2019-03-13T22:30:28.791Z,99623.28
2019-03-13T22:32:58.365Z,99622.86
2019-03-13T22:35:28.424Z,99620.29
2019-03-13T22:37:58.473Z,99622.83
2019-03-13T22:40:28.437Z,99623.27
2019-03-13T22:42:58.375Z,99627.08
2019-03-13T22:45:28.711Z,99626.22
2019-03-13T22:47:58.725Z,99633.91
2019-03-13T22:50:28.914Z,99636.03
2019-03-13T22:52:59.059Z,99632.19
2019-03-13T22:55:29.141Z,99637.72
2019-03-13T22:58:01.524Z,99632.58
2019-03-13T23:00:55.888Z,99630.86
2019-03-13T23:03:27.695Z,99631.23
2019-03-13T23:05:58.260Z,99631.67
2019-03-13T23:08:30.918Z,99629.08
2019-03-13T23:11:00.512Z,99628.63
2019-03-13T23:13:30.539Z,99631.20
2019-03-13T23:16:01.483Z,99641.81
2019-03-13T23:18:31.612Z,99638.81
2019-03-13T23:21:15.452Z,99640.50
2019-03-13T23:23:45.634Z,99634.92
2019-03-13T23:26:15.551Z,99634.48
2019-03-13T23:28:45.705Z,99641.38
2019-03-13T23:31:15.966Z,99635.87
2019-03-13T23:33:46.078Z,99641.43
2019-03-13T23:36:16.080Z,99645.66
2019-03-13T23:38:45.728Z,99645.67
2019-03-13T23:41:16.003Z,99637.55
2019-03-13T23:43:46.219Z,99642.63
2019-03-13T23:46:16.931Z,99639.61
2019-03-13T23:48:48.657Z,99646.84
2019-03-13T23:51:26.371Z,99643.38
2019-03-13T23:53:57.733Z,99648.48
2019-03-13T23:56:28.911Z,99648.48
2019-03-13T23:59:01.493Z,99652.35
